Time;durP1;ratioP1;P1;durP2;ratioP2;P2;SDS_P1;SDS_P2;PMS_P1;PMS_P2;Temp;Humidity;BMP_temperature;BMP_pressure;BME280_temperature;BME280_humidity;BME280_pressure;Samples;Min_cycle;Max_cycle;Signal;HPM_P1;HPM_P2
2022/01/06 16:08:35;;;;;;;5.60;3.30;;;;;;;-0.23;69.38;99836.38;106103;1300;545175;-83
2022/01/06 16:11:04;;;;;;;8.70;4.00;;;;;;;-0.19;69.39;99835.95;107481;1284;22691;-80
2022/01/06 16:13:34;;;;;;;5.20;3.40;;;;;;;-0.20;69.30;99839.76;106120;1289;61137;-83
2022/01/06 16:16:05;;;;;;;4.30;3.00;;;;;;;-0.22;69.45;99849.88;105974;1290;22659;-88
2022/01/06 16:18:32;;;;;;;4.90;3.10;;;;;;;-0.29;69.66;99853.17;105750;1289;23909;-83
2022/01/06 16:20:59;;;;;;;6.80;3.00;;;;;;;-0.38;71.44;99860.55;104970;1290;135422;-88
2022/01/06 16:23:27;;;;;;;3.80;2.60;;;;;;;-0.42;71.64;99860.97;105553;1283;24410;-89
2022/01/06 16:25:58;;;;;;;4.50;2.60;;;;;;;-0.47;72.17;99864.46;105791;1283;25369;-88
2022/01/06 16:28:27;;;;;;;5.20;2.90;;;;;;;-0.53;72.92;99874.52;105669;1283;22553;-88
2022/01/06 16:30:57;;;;;;;5.80;2.70;;;;;;;-0.55;72.94;99882.06;105794;1283;25261;-88
2022/01/06 16:33:24;;;;;;;5.40;3.30;;;;;;;-0.68;72.94;99891.57;105582;1283;22715;-88
2022/01/06 16:35:54;;;;;;;5.20;2.90;;;;;;;-0.76;73.44;99898.42;105543;1284;22755;-88
2022/01/06 16:38:22;;;;;;;5.40;3.10;;;;;;;-0.81;73.76;99905.20;105688;1283;25830;-87
2022/01/06 16:40:53;;;;;;;6.10;4.00;;;;;;;-0.86;74.31;99905.23;105566;1283;24370;-88
2022/01/06 16:43:20;;;;;;;5.40;3.10;;;;;;;-0.85;74.57;99908.21;105489;1283;24186;-88
2022/01/06 16:45:47;;;;;;;5.10;2.60;;;;;;;-0.88;74.76;99913.64;105519;1283;24338;-86
2022/01/06 16:48:14;;;;;;;6.90;3.40;;;;;;;-0.88;74.73;99922.30;105600;1283;24938;-86
2022/01/06 16:50:41;;;;;;;4.70;3.10;;;;;;;-0.94;75.15;99926.43;105633;1282;22609;-89
2022/01/06 16:53:08;;;;;;;3.70;2.60;;;;;;;-0.94;75.36;99931.79;105721;1283;22554;-88
2022/01/06 16:55:39;;;;;;;5.20;3.20;;;;;;;-0.93;75.23;99936.48;105585;1282;22580;-83
2022/01/06 16:58:12;;;;;;;4.00;2.30;;;;;;;-0.92;75.10;99937.73;105583;1283;22663;-86
2022/01/06 17:00:39;;;;;;;3.10;2.50;;;;;;;-1.00;82.87;99936.98;105707;1286;23126;-87
2022/01/06 17:03:09;;;;;;;3.60;2.70;;;;;;;-1.00;83.17;99938.70;105327;1285;25331;-86
2022/01/06 17:05:36;;;;;;;4.80;2.70;;;;;;;-0.98;82.07;99949.46;105513;1285;22558;-87
2022/01/06 17:08:05;;;;;;;5.30;3.00;;;;;;;-0.98;80.91;99951.73;105719;1283;22708;-85
2022/01/06 17:10:32;;;;;;;2.80;2.10;;;;;;;-1.02;80.20;99959.57;105686;1283;22572;-87
2022/01/06 17:12:59;;;;;;;3.20;2.30;;;;;;;-1.10;79.63;99963.28;105622;1283;26635;-89
2022/01/06 17:15:26;;;;;;;3.90;2.50;;;;;;;-1.17;79.30;99972.22;105565;1284;22561;-87
2022/01/06 17:17:53;;;;;;;3.80;2.50;;;;;;;-1.19;79.13;99974.93;105540;1283;24260;-85
2022/01/06 17:20:20;;;;;;;3.70;2.20;;;;;;;-1.17;78.62;99980.52;105636;1283;25464;-87
2022/01/06 17:22:47;;;;;;;5.10;2.90;;;;;;;-1.17;78.09;99984.85;105737;1283;24271;-86
2022/01/06 17:25:20;;;;;;;5.30;2.90;;;;;;;-1.13;77.80;99986.36;105791;1283;22694;-87
2022/01/06 17:27:47;;;;;;;4.00;2.60;;;;;;;-1.10;77.39;99990.24;106627;1284;22547;-86
2022/01/06 17:30:15;;;;;;;4.30;3.00;;;;;;;-1.08;77.27;99996.04;106835;1283;22689;-86
2022/01/06 17:32:45;;;;;;;4.20;2.30;;;;;;;-1.04;76.86;99998.58;106860;1283;22551;-87
2022/01/06 17:35:13;;;;;;;4.70;2.50;;;;;;;-1.06;76.52;100001.60;105883;1283;22731;-83
2022/01/06 17:37:41;;;;;;;5.10;2.90;;;;;;;-1.04;76.65;100006.00;105645;1283;22627;-82
2022/01/06 17:40:09;;;;;;;4.20;2.70;;;;;;;-1.03;75.94;100007.41;105669;1283;22764;-82
2022/01/06 17:42:36;;;;;;;4.70;2.80;;;;;;;-1.03;75.98;100013.11;105570;1283;22553;-82
2022/01/06 17:45:04;;;;;;;3.00;2.70;;;;;;;-1.01;76.05;100016.45;105578;1282;24201;-83
2022/01/06 17:47:31;;;;;;;5.30;3.20;;;;;;;-1.02;75.70;100019.36;105373;1284;22640;-84
2022/01/06 17:49:58;;;;;;;6.00;3.00;;;;;;;-1.00;75.79;100025.30;105665;1281;24347;-85
2022/01/06 17:52:25;;;;;;;3.60;2.80;;;;;;;-0.97;75.60;100029.02;105321;1283;23938;-83
2022/01/06 17:54:52;;;;;;;5.60;3.20;;;;;;;-0.99;75.31;100037.79;105277;1283;24246;-81
2022/01/06 17:57:19;;;;;;;5.80;3.70;;;;;;;-1.03;75.13;100037.16;105385;1283;24230;-83
2022/01/06 17:59:46;;;;;;;5.20;3.10;;;;;;;-1.06;75.10;100037.89;105329;1283;25261;-82
2022/01/06 18:02:13;;;;;;;7.70;3.50;;;;;;;-1.09;75.08;100038.48;105300;1283;22549;-83
2022/01/06 18:04:43;;;;;;;4.90;3.20;;;;;;;-1.07;75.22;100037.35;105388;1283;24242;-83
2022/01/06 18:07:12;;;;;;;4.50;2.50;;;;;;;-1.06;75.13;100042.23;105629;1283;23263;-81
2022/01/06 18:12:13;;;;;;;6.20;3.00;;;;;;;-1.11;74.92;100047.94;107292;1283;22498;-80
2022/01/06 18:14:44;;;;;;;6.00;3.10;;;;;;;-1.11;74.94;100052.09;107406;1283;22556;-79
2022/01/06 18:17:13;;;;;;;6.80;3.60;;;;;;;-1.08;74.96;100056.86;106392;1283;22619;-88
2022/01/06 18:19:40;;;;;;;5.40;3.10;;;;;;;-1.02;74.81;100059.98;107809;1283;22516;-84
2022/01/06 18:22:09;;;;;;;4.20;2.80;;;;;;;-1.03;74.79;100061.19;108609;1283;22786;-87
2022/01/06 18:24:37;;;;;;;5.30;2.80;;;;;;;-0.99;74.68;100063.54;108525;1283;22515;-81
2022/01/06 18:27:06;;;;;;;4.80;2.80;;;;;;;-0.95;74.61;100070.23;108731;1281;22503;-86
2022/01/06 18:29:35;;;;;;;4.50;3.20;;;;;;;-0.96;74.32;100080.23;108773;1281;22512;-85
2022/01/06 18:32:03;;;;;;;7.60;2.80;;;;;;;-0.95;74.18;100083.20;108866;1283;22686;-88
2022/01/06 18:34:30;;;;;;;5.00;3.30;;;;;;;-0.93;74.19;100087.42;108675;1282;22725;-86
2022/01/06 18:36:57;;;;;;;5.30;2.60;;;;;;;-0.90;74.13;100095.97;108803;1283;22926;-86
2022/01/06 18:39:24;;;;;;;4.40;2.80;;;;;;;-0.90;73.97;100101.69;108411;1283;24298;-87
2022/01/06 18:41:51;;;;;;;4.20;2.40;;;;;;;-0.92;73.74;100107.52;107372;1283;22551;-86
2022/01/06 18:44:18;;;;;;;4.30;2.40;;;;;;;-0.90;73.71;100111.20;108030;1283;22969;-85
2022/01/06 18:46:46;;;;;;;5.70;2.90;;;;;;;-0.89;73.67;100115.91;107778;1283;25256;-86
2022/01/06 18:49:13;;;;;;;6.50;3.00;;;;;;;-0.82;73.67;100119.40;107687;1283;23310;-87
2022/01/06 18:51:40;;;;;;;4.90;2.60;;;;;;;-0.79;73.50;100121.77;107986;1283;23163;-88
2022/01/06 18:54:07;;;;;;;4.20;2.60;;;;;;;-0.81;73.04;100118.56;107480;1283;22690;-87
2022/01/06 18:56:34;;;;;;;5.20;3.10;;;;;;;-0.79;73.06;100125.72;107429;1283;24249;-88
2022/01/06 18:59:05;;;;;;;3.60;2.50;;;;;;;-0.80;72.81;100124.86;107911;1283;22515;-88
2022/01/06 19:01:35;;;;;;;5.90;2.90;;;;;;;-0.78;72.73;100131.98;108063;1283;22812;-87
2022/01/06 19:04:03;;;;;;;6.60;2.90;;;;;;;-0.79;72.50;100135.09;107910;1283;25464;-86
2022/01/06 19:06:30;;;;;;;4.80;2.40;;;;;;;-0.76;72.62;100142.61;108045;1283;22656;-86
2022/01/06 19:08:57;;;;;;;4.20;2.70;;;;;;;-0.79;72.15;100147.17;108056;1283;22502;-88
2022/01/06 19:11:24;;;;;;;4.90;2.20;;;;;;;-0.81;72.32;100152.11;107611;1282;24371;-87
2022/01/06 19:13:51;;;;;;;5.30;2.90;;;;;;;-0.78;72.35;100160.20;106933;1283;23082;-86
2022/01/06 19:16:17;;;;;;;5.20;3.10;;;;;;;-0.73;72.27;100164.84;106764;1283;22635;-88
2022/01/06 19:18:44;;;;;;;3.40;2.20;;;;;;;-0.71;71.98;100167.48;106388;1283;23948;-77
2022/01/06 19:21:11;;;;;;;3.80;2.30;;;;;;;-0.76;71.71;100178.41;105522;1283;22593;-87
2022/01/06 19:23:38;;;;;;;5.40;2.90;;;;;;;-0.77;71.89;100184.25;106760;1283;25701;-86
2022/01/06 19:26:05;;;;;;;6.70;2.60;;;;;;;-0.78;71.63;100185.27;106012;1286;25841;-88
2022/01/06 19:28:32;;;;;;;4.90;3.00;;;;;;;-0.79;71.49;100191.98;106019;1286;26542;-89
2022/01/06 19:30:59;;;;;;;6.10;3.20;;;;;;;-0.77;71.35;100194.30;106478;1286;25423;-86
2022/01/06 19:33:27;;;;;;;6.10;2.70;;;;;;;-0.78;71.23;100195.30;106003;1286;24218;-87
2022/01/06 19:35:55;;;;;;;5.90;3.10;;;;;;;-0.79;71.04;100202.02;105963;1286;22555;-86
2022/01/06 19:38:24;;;;;;;3.70;2.70;;;;;;;-0.78;71.04;100212.23;106031;1286;24342;-87
2022/01/06 19:40:52;;;;;;;6.90;2.70;;;;;;;-0.78;70.09;100215.00;106114;1286;24260;-82
2022/01/06 19:43:19;;;;;;;2.70;1.90;;;;;;;-0.81;69.74;100218.70;106535;1278;22698;-81
2022/01/06 19:45:46;;;;;;;5.30;2.70;;;;;;;-0.86;69.11;100229.26;107103;1274;24298;-87
2022/01/06 19:48:13;;;;;;;3.10;2.10;;;;;;;-0.91;68.52;100232.34;107634;1274;22558;-86
2022/01/06 19:50:41;;;;;;;3.90;1.70;;;;;;;-0.97;67.60;100229.91;107582;1275;24214;-77
2022/01/06 19:53:10;;;;;;;4.60;2.10;;;;;;;-1.08;67.16;100241.44;106700;1274;25378;-80
2022/01/06 19:55:38;;;;;;;3.10;1.70;;;;;;;-1.18;67.38;100246.11;106458;1277;22732;-77
2022/01/06 19:58:06;;;;;;;4.20;1.80;;;;;;;-1.28;67.84;100245.05;107123;1274;22548;-76
2022/01/06 20:00:37;;;;;;;3.50;2.00;;;;;;;-1.38;67.12;100254.55;107036;1275;25248;-78
2022/01/06 20:03:06;;;;;;;4.20;2.20;;;;;;;-1.37;67.27;100261.49;107473;1274;22478;-77
2022/01/06 20:05:35;;;;;;;4.00;2.30;;;;;;;-1.35;66.88;100264.14;107410;1276;22660;-75
2022/01/06 20:08:02;;;;;;;4.00;2.20;;;;;;;-1.38;66.64;100270.80;107556;1274;25252;-74
2022/01/06 20:10:31;;;;;;;3.10;1.50;;;;;;;-1.39;66.97;100271.61;107304;1274;24247;-78
2022/01/06 20:12:58;;;;;;;6.10;2.30;;;;;;;-1.40;66.72;100271.73;107214;1275;22584;-77
2022/01/06 20:15:25;;;;;;;3.00;1.60;;;;;;;-1.41;66.31;100274.63;107276;1274;22562;-79
2022/01/06 20:17:52;;;;;;;3.00;1.70;;;;;;;-1.47;66.02;100280.29;107083;1274;24408;-76
2022/01/06 20:20:25;;;;;;;3.20;1.80;;;;;;;-1.55;66.16;100279.13;107262;1274;23284;-75
2022/01/06 20:22:56;;;;;;;3.50;1.90;;;;;;;-1.58;66.05;100278.50;106992;1274;25254;-77
2022/01/06 20:25:25;;;;;;;4.30;2.20;;;;;;;-1.58;66.01;100278.67;106713;1274;22540;-78
2022/01/06 20:27:55;;;;;;;3.80;1.80;;;;;;;-1.57;66.37;100292.16;106620;1275;23335;-78
2022/01/06 20:30:23;;;;;;;6.40;2.90;;;;;;;-1.53;66.39;100300.27;106609;1274;23211;-78
2022/01/06 20:32:50;;;;;;;4.30;2.00;;;;;;;-1.54;65.96;100301.42;106308;1274;22557;-77
2022/01/06 20:35:23;;;;;;;4.80;2.30;;;;;;;-1.59;66.00;100308.70;106578;1274;23833;-77
2022/01/06 20:37:53;;;;;;;4.80;1.90;;;;;;;-1.55;66.18;100317.63;105817;1280;22573;-78
2022/01/06 20:40:22;;;;;;;3.90;1.80;;;;;;;-1.53;66.14;100323.44;105834;1280;25270;-76
2022/01/06 20:42:49;;;;;;;3.00;1.70;;;;;;;-1.54;65.71;100323.73;105780;1280;25381;-80
2022/01/06 20:45:16;;;;;;;4.60;1.80;;;;;;;-1.56;65.86;100330.55;105673;1279;25613;-80
2022/01/06 20:53:13;;;;;;;3.20;1.80;;;;;;;-1.56;65.28;100343.67;105614;1279;25351;-77
2022/01/06 20:55:41;;;;;;;3.70;2.20;;;;;;;-1.58;65.35;100347.93;105648;1277;22615;-79
2022/01/06 20:58:10;;;;;;;4.30;1.90;;;;;;;-1.61;65.33;100346.42;105799;1276;24123;-79
2022/01/06 21:00:42;;;;;;;1.90;1.50;;;;;;;-1.62;65.47;100350.73;106139;1274;25258;-78
2022/01/06 21:03:10;;;;;;;3.90;1.70;;;;;;;-1.61;65.45;100356.64;105868;1274;25245;-78
2022/01/06 21:05:37;;;;;;;4.40;2.10;;;;;;;-1.64;65.04;100356.69;106084;1274;25368;-78
2022/01/06 21:08:05;;;;;;;5.90;2.10;;;;;;;-1.70;64.98;100357.31;105744;1276;22772;-78
2022/01/06 21:10:33;;;;;;;1.40;1.30;;;;;;;-1.71;65.15;100360.69;105811;1277;27100;-79
2022/01/06 21:13:02;;;;;;;4.00;1.60;;;;;;;-1.73;65.02;100372.72;106003;1277;25258;-83
2022/01/06 21:15:29;;;;;;;4.80;2.00;;;;;;;-1.78;64.96;100372.36;105872;1276;24346;-78
2022/01/06 21:17:57;;;;;;;3.90;1.90;;;;;;;-1.82;64.79;100378.59;106171;1274;25324;-78
2022/01/06 21:20:24;;;;;;;3.10;1.90;;;;;;;-1.84;65.15;100384.20;105970;1274;22571;-76
2022/01/06 21:22:52;;;;;;;3.80;1.90;;;;;;;-1.88;64.78;100386.25;106025;1274;22773;-80
2022/01/06 21:25:19;;;;;;;3.60;1.60;;;;;;;-1.94;64.70;100381.70;106206;1275;24282;-80
2022/01/06 21:27:46;;;;;;;5.30;2.30;;;;;;;-1.99;64.69;100381.50;106127;1274;25335;-76
2022/01/06 21:30:14;;;;;;;2.00;1.50;;;;;;;-2.01;64.88;100387.82;106083;1274;24237;-77
2022/01/06 21:32:45;;;;;;;2.70;1.40;;;;;;;-2.00;65.10;100395.96;105652;1280;22682;-80
2022/01/06 21:35:13;;;;;;;4.30;1.60;;;;;;;-2.03;64.84;100398.78;105680;1280;25320;-78
2022/01/06 21:37:40;;;;;;;2.90;1.60;;;;;;;-2.03;64.91;100409.29;105819;1280;22531;-77
2022/01/06 21:40:09;;;;;;;6.50;2.20;;;;;;;-2.06;64.71;100416.09;105631;1280;23111;-78
2022/01/06 21:42:36;;;;;;;3.90;1.60;;;;;;;-2.11;64.77;100413.63;105536;1280;24192;-77
2022/01/06 21:45:05;;;;;;;4.30;2.10;;;;;;;-2.11;64.89;100421.91;105820;1280;25442;-79
2022/01/06 21:47:35;;;;;;;3.90;2.10;;;;;;;-2.11;65.11;100421.59;105648;1280;25432;-78
2022/01/06 21:50:05;;;;;;;4.80;2.40;;;;;;;-2.11;65.11;100421.21;105867;1280;24257;-77
2022/01/06 21:52:32;;;;;;;3.30;2.10;;;;;;;-2.09;65.25;100430.09;106066;1276;26527;-78
2022/01/06 21:54:59;;;;;;;3.20;2.20;;;;;;;-2.08;65.22;100433.10;106077;1277;24236;-75
2022/01/06 21:57:26;;;;;;;3.00;2.00;;;;;;;-2.12;64.97;100432.92;106187;1274;22662;-78
2022/01/06 21:59:53;;;;;;;4.70;1.90;;;;;;;-2.16;65.21;100436.18;105971;1276;22705;-79
2022/01/06 22:02:20;;;;;;;4.50;1.80;;;;;;;-2.23;65.05;100436.40;106113;1274;25519;-76
2022/01/06 22:04:47;;;;;;;3.10;2.20;;;;;;;-2.26;65.29;100441.45;105985;1277;24309;-76
2022/01/06 22:07:17;;;;;;;4.50;2.00;;;;;;;-2.26;65.49;100448.72;105723;1278;24378;-76
2022/01/06 22:09:46;;;;;;;6.40;2.40;;;;;;;-2.26;65.53;100452.86;105697;1277;23015;-75
2022/01/06 22:12:13;;;;;;;4.90;2.60;;;;;;;-2.28;65.58;100456.41;105752;1277;25647;-79
2022/01/06 22:14:40;;;;;;;2.40;1.90;;;;;;;-2.33;65.58;100459.78;105703;1277;24290;-81
2022/01/06 22:17:07;;;;;;;2.60;2.00;;;;;;;-2.33;65.79;100466.33;105785;1277;23092;-81
2022/01/06 22:19:34;;;;;;;7.60;2.50;;;;;;;-2.33;65.80;100472.92;105740;1277;23780;-83
2022/01/06 22:22:02;;;;;;;4.30;2.00;;;;;;;-2.34;65.94;100477.17;105770;1277;25289;-85
2022/01/06 22:24:29;;;;;;;6.60;2.80;;;;;;;-2.38;66.06;100480.28;105885;1277;22538;-82
2022/01/06 22:26:56;;;;;;;4.30;2.20;;;;;;;-2.40;66.01;100487.60;106429;1274;24548;-81
2022/01/06 22:29:23;;;;;;;5.40;2.60;;;;;;;-2.40;66.20;100490.87;106939;1274;22604;-89
2022/01/06 22:31:50;;;;;;;4.20;2.30;;;;;;;-2.41;66.32;100495.14;107757;1274;23970;-83
2022/01/06 22:34:17;;;;;;;7.10;2.80;;;;;;;-2.41;66.49;100501.16;106322;1274;22711;-82
2022/01/06 22:36:44;;;;;;;5.30;2.50;;;;;;;-2.41;66.53;100501.16;106058;1274;22499;-81
2022/01/06 22:39:11;;;;;;;4.70;1.90;;;;;;;-2.43;66.53;100507.11;106286;1274;22656;-80
2022/01/06 22:41:38;;;;;;;6.90;2.80;;;;;;;-2.48;66.66;100501.05;106279;1274;22557;-83
2022/01/06 22:44:05;;;;;;;7.30;3.20;;;;;;;-2.46;66.91;100500.94;106129;1275;22541;-83
2022/01/06 22:46:33;;;;;;;4.80;2.40;;;;;;;-2.50;66.94;100502.70;106053;1274;24350;-80
2022/01/06 22:49:00;;;;;;;5.20;2.60;;;;;;;-2.55;67.21;100502.66;106139;1274;25293;-80
2022/01/06 22:51:28;;;;;;;3.90;2.40;;;;;;;-2.54;67.30;100507.51;106292;1274;24348;-80
2022/01/06 22:53:55;;;;;;;5.20;2.80;;;;;;;-2.55;67.50;100511.09;106129;1274;25528;-84
2022/01/06 22:56:22;;;;;;;7.10;3.40;;;;;;;-2.50;67.73;100516.27;106384;1274;24275;-84
2022/01/06 22:58:49;;;;;;;6.90;3.70;;;;;;;-2.46;67.84;100519.77;106295;1274;25623;-85
2022/01/06 23:01:16;;;;;;;8.40;2.80;;;;;;;-2.44;67.79;100523.62;106169;1277;22703;-88
2022/01/06 23:03:45;;;;;;;4.50;2.90;;;;;;;-2.43;67.89;100523.98;106305;1274;24220;-82
2022/01/06 23:06:12;;;;;;;7.40;3.40;;;;;;;-2.40;68.13;100526.59;106106;1274;26052;-83
2022/01/06 23:08:43;;;;;;;6.40;3.10;;;;;;;-2.36;68.15;100533.48;106682;1274;25936;-84
2022/01/06 23:11:11;;;;;;;6.30;3.20;;;;;;;-2.37;68.22;100535.86;107515;1274;22558;-84
2022/01/06 23:13:38;;;;;;;5.30;3.10;;;;;;;-2.37;68.19;100536.02;107966;1276;25412;-86
2022/01/06 23:16:05;;;;;;;5.30;2.80;;;;;;;-2.37;68.33;100537.41;107817;1280;22873;-85
2022/01/06 23:18:32;;;;;;;5.40;2.90;;;;;;;-2.38;68.22;100538.08;107979;1280;22625;-87
2022/01/06 23:20:59;;;;;;;10.50;3.30;;;;;;;-2.40;68.39;100537.77;108439;1279;25252;-86
2022/01/06 23:23:27;;;;;;;5.60;3.30;;;;;;;-2.40;68.36;100543.29;107191;1280;25462;-85
2022/01/06 23:25:54;;;;;;;6.90;3.50;;;;;;;-2.39;68.51;100545.58;106162;1280;26630;-82
2022/01/06 23:28:23;;;;;;;5.10;3.40;;;;;;;-2.37;68.63;100545.48;106636;1279;23380;-84
2022/01/06 23:30:52;;;;;;;5.80;3.50;;;;;;;-2.40;68.55;100543.15;106092;1280;22724;-85
2022/01/06 23:33:20;;;;;;;6.50;3.30;;;;;;;-2.41;68.58;100546.03;106271;1279;23033;-86
2022/01/06 23:35:48;;;;;;;6.60;4.10;;;;;;;-2.43;68.69;100549.90;105536;1282;24480;-85
2022/01/06 23:38:15;;;;;;;8.60;4.40;;;;;;;-2.44;68.90;100551.42;105956;1280;22513;-84
2022/01/06 23:40:45;;;;;;;7.50;4.20;;;;;;;-2.48;68.73;100555.39;105853;1274;22615;-83
2022/01/06 23:43:12;;;;;;;7.30;3.20;;;;;;;-2.53;68.83;100553.58;105615;1282;24227;-81
2022/01/06 23:45:40;;;;;;;9.40;4.80;;;;;;;-2.61;68.90;100560.14;105852;1279;22833;-82
2022/01/06 23:48:07;;;;;;;7.30;4.10;;;;;;;-2.64;69.19;100559.29;106015;1280;22585;-83
2022/01/06 23:50:34;;;;;;;9.00;4.70;;;;;;;-2.67;69.41;100558.11;106267;1280;23131;-81
2022/01/06 23:53:01;;;;;;;8.80;4.80;;;;;;;-2.72;69.36;100556.48;107039;1279;22558;-79
2022/01/06 23:55:29;;;;;;;9.50;4.80;;;;;;;-2.77;69.71;100559.20;107061;1280;22558;-82
2022/01/06 23:57:58;;;;;;;11.00;5.60;;;;;;;-2.76;70.01;100558.19;106645;1279;24366;-83
